AAL2057 KCLT-KECP
Flight info
| Callsign | AAL2057 |
|---|---|
| Flight time | 1h 13m |
| Altitude | 34000 |
| Route | BEAVY6 JENDO MAVRC TEEEM CABLO |
| Aircraft | A320/M-SDE3FGHIRWY/LB1 |
Departure
| Time | 2026-04-26 23:41 |
|---|---|
| Airport | Charlotte Douglas International Airport (KCLT) |
Arrival
| Time | 2026-04-27 00:55 |
|---|---|
| Airport | Northwest Florida Beaches International Airport (KECP) |
| Time | Latitude | Longitude | Altitude | Speed | Heading |
|---|---|---|---|---|---|
| 2026-04-26 22:57 | 35.21981 | -80.94341 | 733 ft | 0 kts | 92° |
| 2026-04-26 23:16 | 35.21980 | -80.94362 | 732 ft | 4 kts | 54° |
| 2026-04-26 23:16 | 35.21963 | -80.94380 | 731 ft | 4 kts | 22° |
| 2026-04-26 23:16 | 35.21940 | -80.94381 | 731 ft | 4 kts | 330° |
| 2026-04-26 23:16 | 35.21917 | -80.94363 | 731 ft | 4 kts | 339° |
| 2026-04-26 23:17 | 35.21895 | -80.94363 | 730 ft | 4 kts | 33° |
| 2026-04-26 23:17 | 35.21885 | -80.94382 | 730 ft | 4 kts | 111° |
| 2026-04-26 23:17 | 35.21898 | -80.94399 | 731 ft | 4 kts | 186° |
| 2026-04-26 23:17 | 35.21925 | -80.94395 | 731 ft | 3 kts | 189° |
| 2026-04-26 23:18 | 35.21926 | -80.94394 | 731 ft | 0 kts | 189° |
| 2026-04-26 23:31 | 35.21901 | -80.94392 | 731 ft | 4 kts | 175° |
| 2026-04-26 23:31 | 35.21883 | -80.94390 | 732 ft | 0 kts | 174° |
| 2026-04-26 23:33 | 35.21846 | -80.94386 | 732 ft | 8 kts | 175° |
| 2026-04-26 23:34 | 35.21796 | -80.94381 | 732 ft | 6 kts | 175° |
| 2026-04-26 23:34 | 35.21756 | -80.94379 | 732 ft | 5 kts | 177° |
| 2026-04-26 23:34 | 35.21723 | -80.94377 | 732 ft | 4 kts | 177° |
| 2026-04-26 23:34 | 35.21692 | -80.94374 | 732 ft | 8 kts | 175° |
| 2026-04-26 23:35 | 35.21644 | -80.94347 | 732 ft | 8 kts | 123° |
| 2026-04-26 23:35 | 35.21629 | -80.94254 | 732 ft | 12 kts | 97° |
| 2026-04-26 23:35 | 35.21651 | -80.94154 | 731 ft | 14 kts | 49° |
| 2026-04-26 23:35 | 35.21709 | -80.94076 | 731 ft | 10 kts | 49° |
| 2026-04-26 23:36 | 35.21705 | -80.93994 | 732 ft | 13 kts | 133° |
| 2026-04-26 23:36 | 35.21633 | -80.93916 | 733 ft | 14 kts | 138° |
| 2026-04-26 23:36 | 35.21552 | -80.93827 | 733 ft | 17 kts | 139° |
| 2026-04-26 23:36 | 35.21462 | -80.93729 | 733 ft | 16 kts | 139° |
| 2026-04-26 23:37 | 35.21388 | -80.93663 | 733 ft | 12 kts | 160° |
| 2026-04-26 23:37 | 35.21294 | -80.93650 | 733 ft | 15 kts | 175° |
| 2026-04-26 23:37 | 35.21185 | -80.93641 | 733 ft | 17 kts | 176° |
| 2026-04-26 23:37 | 35.21060 | -80.93632 | 733 ft | 19 kts | 176° |
| 2026-04-26 23:38 | 35.20921 | -80.93619 | 733 ft | 21 kts | 175° |
| 2026-04-26 23:38 | 35.20769 | -80.93604 | 733 ft | 23 kts | 175° |
| 2026-04-26 23:38 | 35.20605 | -80.93591 | 733 ft | 24 kts | 178° |
| 2026-04-26 23:38 | 35.20479 | -80.93581 | 733 ft | 16 kts | 176° |
| 2026-04-26 23:39 | 35.20363 | -80.93572 | 733 ft | 18 kts | 176° |
| 2026-04-26 23:39 | 35.20235 | -80.93560 | 733 ft | 17 kts | 176° |
| 2026-04-26 23:39 | 35.20160 | -80.93554 | 733 ft | 10 kts | 176° |
| 2026-04-26 23:39 | 35.20110 | -80.93528 | 733 ft | 8 kts | 128° |
| 2026-04-26 23:40 | 35.20099 | -80.93457 | 734 ft | 9 kts | 81° |
| 2026-04-26 23:40 | 35.20112 | -80.93416 | 733 ft | 5 kts | 50° |
| 2026-04-26 23:40 | 35.20143 | -80.93415 | 734 ft | 6 kts | 348° |
| 2026-04-26 23:40 | 35.20324 | -80.93433 | 737 ft | 59 kts | 356° |
| 2026-04-26 23:41 | 35.20983 | -80.93490 | 734 ft | 128 kts | 356° |
| 2026-04-26 23:41 | 35.22052 | -80.93588 | 811 ft | 172 kts | 359° |
| 2026-04-26 23:41 | 35.23224 | -80.93683 | 1532 ft | 168 kts | 6° |
| 2026-04-26 23:41 | 35.24367 | -80.93503 | 2330 ft | 164 kts | 15° |
| 2026-04-26 23:42 | 35.25539 | -80.93222 | 2829 ft | 182 kts | 17° |
| 2026-04-26 23:42 | 35.28335 | -80.92465 | 3534 ft | 231 kts | 17° |
| 2026-04-26 23:42 | 35.29974 | -80.91978 | 4076 ft | 251 kts | 17° |
| 2026-04-26 23:43 | 35.31686 | -80.91429 | 4986 ft | 256 kts | 16° |
| 2026-04-26 23:43 | 35.33400 | -80.90823 | 5993 ft | 258 kts | 17° |
| 2026-04-26 23:43 | 35.35117 | -80.90176 | 7017 ft | 258 kts | 17° |
| 2026-04-26 23:43 | 35.36840 | -80.89520 | 7953 ft | 262 kts | 17° |
| 2026-04-26 23:44 | 35.38606 | -80.88866 | 8810 ft | 268 kts | 17° |
| 2026-04-26 23:44 | 35.40410 | -80.88213 | 9674 ft | 273 kts | 17° |
| 2026-04-26 23:44 | 35.42233 | -80.87476 | 10425 ft | 282 kts | 26° |
| 2026-04-26 23:44 | 35.43830 | -80.85951 | 10723 ft | 306 kts | 52° |
| 2026-04-26 23:45 | 35.44698 | -80.83525 | 11268 ft | 321 kts | 79° |
| 2026-04-26 23:45 | 35.44537 | -80.80781 | 12037 ft | 331 kts | 107° |
| 2026-04-26 23:45 | 35.43311 | -80.78371 | 12834 ft | 342 kts | 134° |
| 2026-04-26 23:45 | 35.41255 | -80.76873 | 13636 ft | 352 kts | 161° |
| 2026-04-26 23:46 | 35.38800 | -80.76626 | 14358 ft | 361 kts | 185° |
| 2026-04-26 23:46 | 35.36333 | -80.77286 | 15072 ft | 366 kts | 196° |
| 2026-04-26 23:46 | 35.33938 | -80.78388 | 15781 ft | 370 kts | 201° |
| 2026-04-26 23:46 | 35.31567 | -80.79653 | 16469 ft | 373 kts | 202° |
| 2026-04-26 23:47 | 35.29173 | -80.80919 | 17166 ft | 377 kts | 201° |
| 2026-04-26 23:47 | 35.26728 | -80.82112 | 17799 ft | 380 kts | 199° |
| 2026-04-26 23:47 | 35.24231 | -80.83219 | 18456 ft | 383 kts | 198° |
| 2026-04-26 23:47 | 35.21692 | -80.84264 | 19025 ft | 387 kts | 197° |
| 2026-04-26 23:48 | 35.19119 | -80.85280 | 19598 ft | 391 kts | 197° |
| 2026-04-26 23:48 | 35.16515 | -80.86293 | 20157 ft | 395 kts | 197° |
| 2026-04-26 23:48 | 35.13888 | -80.87324 | 20748 ft | 398 kts | 198° |
| 2026-04-26 23:48 | 35.11245 | -80.88373 | 21339 ft | 401 kts | 199° |
| 2026-04-26 23:49 | 35.08584 | -80.89438 | 21928 ft | 404 kts | 199° |
| 2026-04-26 23:49 | 35.05945 | -80.90499 | 22502 ft | 407 kts | 200° |
| 2026-04-26 23:49 | 35.03238 | -80.91590 | 22939 ft | 411 kts | 200° |
| 2026-04-26 23:49 | 35.00525 | -80.92682 | 23048 ft | 411 kts | 200° |
| 2026-04-26 23:50 | 34.97807 | -80.93776 | 23065 ft | 411 kts | 200° |
| 2026-04-26 23:50 | 34.95092 | -80.94867 | 23061 ft | 411 kts | 200° |
| 2026-04-26 23:50 | 34.92373 | -80.95958 | 23065 ft | 413 kts | 200° |
| 2026-04-26 23:50 | 34.89654 | -80.97046 | 23056 ft | 411 kts | 201° |
| 2026-04-26 23:51 | 34.86942 | -80.98132 | 23059 ft | 411 kts | 201° |
| 2026-04-26 23:51 | 34.84206 | -80.99230 | 23054 ft | 412 kts | 201° |
| 2026-04-26 23:51 | 34.81494 | -81.00315 | 23069 ft | 409 kts | 201° |
| 2026-04-26 23:51 | 34.78791 | -81.01397 | 23065 ft | 409 kts | 201° |
| 2026-04-26 23:52 | 34.76091 | -81.02479 | 23066 ft | 409 kts | 201° |
| 2026-04-26 23:52 | 34.73390 | -81.03557 | 23069 ft | 409 kts | 201° |
| 2026-04-26 23:52 | 34.70687 | -81.04631 | 23066 ft | 409 kts | 201° |
| 2026-04-26 23:52 | 34.67985 | -81.05703 | 23063 ft | 409 kts | 201° |
| 2026-04-26 23:53 | 34.65285 | -81.06776 | 23053 ft | 408 kts | 202° |
| 2026-04-26 23:53 | 34.62588 | -81.07849 | 23057 ft | 408 kts | 202° |
| 2026-04-26 23:53 | 34.59891 | -81.08924 | 23052 ft | 408 kts | 202° |
| 2026-04-26 23:53 | 34.57189 | -81.09973 | 23050 ft | 409 kts | 199° |
| 2026-04-26 23:54 | 34.54393 | -81.10684 | 23047 ft | 412 kts | 193° |
| 2026-04-26 23:54 | 34.51542 | -81.11294 | 23090 ft | 424 kts | 193° |
| 2026-04-26 23:54 | 34.48593 | -81.11930 | 23249 ft | 436 kts | 193° |
| 2026-04-26 23:54 | 34.45577 | -81.12576 | 23592 ft | 443 kts | 193° |
| 2026-04-26 23:55 | 34.42527 | -81.13226 | 23991 ft | 447 kts | 194° |
| 2026-04-26 23:55 | 34.39458 | -81.13881 | 24364 ft | 449 kts | 194° |
| 2026-04-26 23:55 | 34.36373 | -81.14554 | 24745 ft | 451 kts | 195° |
| 2026-04-26 23:55 | 34.33296 | -81.15347 | 25111 ft | 453 kts | 198° |
| 2026-04-26 23:56 | 34.30232 | -81.16255 | 25476 ft | 454 kts | 199° |
| 2026-04-26 23:56 | 34.27168 | -81.17233 | 25834 ft | 457 kts | 200° |
| 2026-04-26 23:56 | 34.24092 | -81.18237 | 26188 ft | 459 kts | 200° |
| 2026-04-26 23:56 | 34.21000 | -81.19237 | 26527 ft | 462 kts | 200° |
| 2026-04-26 23:57 | 34.17878 | -81.20215 | 26857 ft | 465 kts | 199° |
| 2026-04-26 23:57 | 34.14734 | -81.21172 | 27160 ft | 467 kts | 199° |
| 2026-04-26 23:57 | 34.11576 | -81.22115 | 27497 ft | 469 kts | 199° |
| 2026-04-26 23:57 | 34.08401 | -81.23055 | 27821 ft | 471 kts | 199° |
| 2026-04-26 23:58 | 34.05211 | -81.23998 | 28132 ft | 473 kts | 199° |
| 2026-04-26 23:58 | 34.02013 | -81.24948 | 28424 ft | 475 kts | 199° |
| 2026-04-26 23:58 | 33.98793 | -81.25908 | 28700 ft | 477 kts | 199° |
| 2026-04-26 23:58 | 33.95564 | -81.26872 | 28954 ft | 479 kts | 199° |
| 2026-04-26 23:59 | 33.92316 | -81.27842 | 29214 ft | 482 kts | 199° |
| 2026-04-26 23:59 | 33.89057 | -81.28817 | 29416 ft | 484 kts | 200° |
| 2026-04-26 23:59 | 33.85789 | -81.29799 | 29637 ft | 485 kts | 200° |
| 2026-04-26 23:59 | 33.82602 | -81.30910 | 29941 ft | 480 kts | 206° |
| 2026-04-27 00:00 | 33.79471 | -81.32284 | 30238 ft | 479 kts | 206° |
| 2026-04-27 00:00 | 33.76341 | -81.33651 | 30519 ft | 478 kts | 206° |
| 2026-04-27 00:00 | 33.73209 | -81.35010 | 30794 ft | 478 kts | 206° |
| 2026-04-27 00:00 | 33.70086 | -81.36358 | 31083 ft | 477 kts | 206° |
| 2026-04-27 00:01 | 33.66965 | -81.37705 | 31381 ft | 476 kts | 206° |
| 2026-04-27 00:01 | 33.63851 | -81.39054 | 31645 ft | 475 kts | 206° |
| 2026-04-27 00:01 | 33.60747 | -81.40399 | 31994 ft | 473 kts | 206° |
| 2026-04-27 00:01 | 33.57657 | -81.41736 | 32310 ft | 472 kts | 206° |
| 2026-04-27 00:02 | 33.54574 | -81.43068 | 32618 ft | 470 kts | 206° |
| 2026-04-27 00:02 | 33.51501 | -81.44398 | 32927 ft | 469 kts | 207° |
| 2026-04-27 00:02 | 33.48430 | -81.45730 | 33223 ft | 469 kts | 207° |
| 2026-04-27 00:02 | 33.45368 | -81.47058 | 33528 ft | 468 kts | 207° |
| 2026-04-27 00:03 | 33.42310 | -81.48381 | 33834 ft | 467 kts | 207° |
| 2026-04-27 00:03 | 33.39255 | -81.49700 | 33964 ft | 467 kts | 207° |
| 2026-04-27 00:03 | 33.33174 | -81.52322 | 34004 ft | 463 kts | 207° |
| 2026-04-27 00:04 | 33.27119 | -81.54920 | 34012 ft | 462 kts | 207° |
| 2026-04-27 00:04 | 33.21070 | -81.57518 | 33973 ft | 462 kts | 207° |
| 2026-04-27 00:05 | 33.15020 | -81.60115 | 33968 ft | 462 kts | 207° |
| 2026-04-27 00:05 | 33.08968 | -81.62706 | 33965 ft | 462 kts | 207° |
| 2026-04-27 00:06 | 33.02920 | -81.65294 | 33975 ft | 462 kts | 207° |
| 2026-04-27 00:06 | 32.96864 | -81.67874 | 33956 ft | 462 kts | 207° |
| 2026-04-27 00:07 | 32.90809 | -81.70447 | 33970 ft | 462 kts | 207° |
| 2026-04-27 00:07 | 32.84762 | -81.73027 | 33948 ft | 462 kts | 207° |
| 2026-04-27 00:08 | 32.78714 | -81.75603 | 33970 ft | 462 kts | 207° |
| 2026-04-27 00:08 | 32.72702 | -81.78155 | 33982 ft | 462 kts | 207° |
| 2026-04-27 00:09 | 32.66653 | -81.80720 | 33985 ft | 461 kts | 207° |
| 2026-04-27 00:09 | 32.60426 | -81.82763 | 33938 ft | 471 kts | 196° |
| 2026-04-27 00:10 | 32.53949 | -81.83976 | 33950 ft | 471 kts | 195° |
| 2026-04-27 00:10 | 32.47476 | -81.85182 | 33955 ft | 471 kts | 195° |
| 2026-04-27 00:11 | 32.41008 | -81.86405 | 33958 ft | 471 kts | 196° |
| 2026-04-27 00:11 | 32.34543 | -81.87635 | 33932 ft | 470 kts | 196° |
| 2026-04-27 00:12 | 32.28099 | -81.88849 | 33992 ft | 468 kts | 196° |
| 2026-04-27 00:12 | 32.21702 | -81.90157 | 33997 ft | 461 kts | 202° |
| 2026-04-27 00:13 | 32.18722 | -81.91404 | 33996 ft | 450 kts | 212° |
| 2026-04-27 00:13 | 32.16032 | -81.93200 | 33998 ft | 439 kts | 222° |
| 2026-04-27 00:13 | 32.11734 | -81.98079 | 33985 ft | 422 kts | 239° |
| 2026-04-27 00:14 | 32.08809 | -82.03981 | 33950 ft | 416 kts | 247° |
| 2026-04-27 00:14 | 32.06090 | -82.09996 | 33954 ft | 416 kts | 247° |
| 2026-04-27 00:15 | 32.03834 | -82.14991 | 33960 ft | 415 kts | 247° |
| 2026-04-27 00:15 | 32.01110 | -82.20996 | 33959 ft | 415 kts | 247° |
| 2026-04-27 00:16 | 31.98380 | -82.26993 | 33955 ft | 415 kts | 246° |
| 2026-04-27 00:16 | 31.95649 | -82.32988 | 33955 ft | 415 kts | 247° |
| 2026-04-27 00:17 | 31.92918 | -82.38986 | 33950 ft | 416 kts | 246° |
| 2026-04-27 00:17 | 31.90185 | -82.44977 | 33943 ft | 415 kts | 247° |
| 2026-04-27 00:18 | 31.87451 | -82.50964 | 33962 ft | 415 kts | 247° |
| 2026-04-27 00:18 | 31.84731 | -82.56912 | 33537 ft | 416 kts | 246° |
| 2026-04-27 00:19 | 31.83359 | -82.59907 | 33270 ft | 417 kts | 246° |
| 2026-04-27 00:19 | 31.81961 | -82.62955 | 33009 ft | 418 kts | 246° |
| 2026-04-27 00:19 | 31.80596 | -82.65927 | 32750 ft | 419 kts | 246° |
| 2026-04-27 00:19 | 31.79189 | -82.68984 | 32486 ft | 421 kts | 246° |
| 2026-04-27 00:20 | 31.77794 | -82.72015 | 32225 ft | 422 kts | 246° |
| 2026-04-27 00:20 | 31.76415 | -82.75009 | 31979 ft | 423 kts | 246° |
| 2026-04-27 00:20 | 31.75012 | -82.78052 | 31727 ft | 424 kts | 246° |
| 2026-04-27 00:20 | 31.73605 | -82.81105 | 31475 ft | 426 kts | 246° |
| 2026-04-27 00:21 | 31.72195 | -82.84167 | 31226 ft | 427 kts | 246° |
| 2026-04-27 00:21 | 31.70759 | -82.87285 | 30977 ft | 429 kts | 246° |
| 2026-04-27 00:21 | 31.69355 | -82.90325 | 30735 ft | 430 kts | 246° |
| 2026-04-27 00:21 | 31.67927 | -82.93413 | 30499 ft | 431 kts | 246° |
| 2026-04-27 00:22 | 31.66490 | -82.96513 | 30268 ft | 433 kts | 246° |
| 2026-04-27 00:22 | 31.65051 | -82.99619 | 30036 ft | 434 kts | 246° |
| 2026-04-27 00:22 | 31.63603 | -83.02741 | 29764 ft | 436 kts | 245° |
| 2026-04-27 00:22 | 31.62154 | -83.05867 | 29488 ft | 437 kts | 245° |
| 2026-04-27 00:23 | 31.60700 | -83.09006 | 29193 ft | 438 kts | 245° |
| 2026-04-27 00:23 | 31.59239 | -83.12151 | 28919 ft | 439 kts | 245° |
| 2026-04-27 00:23 | 31.57774 | -83.15296 | 28652 ft | 440 kts | 245° |
| 2026-04-27 00:23 | 31.56301 | -83.18457 | 28380 ft | 443 kts | 245° |
| 2026-04-27 00:24 | 31.54819 | -83.21637 | 28111 ft | 446 kts | 245° |
| 2026-04-27 00:24 | 31.53330 | -83.24833 | 27845 ft | 447 kts | 245° |
| 2026-04-27 00:24 | 31.51835 | -83.28037 | 27584 ft | 449 kts | 245° |
| 2026-04-27 00:24 | 31.50330 | -83.31250 | 27329 ft | 450 kts | 245° |
| 2026-04-27 00:25 | 31.48820 | -83.34469 | 27073 ft | 450 kts | 245° |
| 2026-04-27 00:25 | 31.47313 | -83.37682 | 26816 ft | 450 kts | 244° |
| 2026-04-27 00:25 | 31.45809 | -83.40886 | 26578 ft | 449 kts | 244° |
| 2026-04-27 00:25 | 31.44308 | -83.44084 | 26361 ft | 448 kts | 244° |
| 2026-04-27 00:26 | 31.42813 | -83.47278 | 26113 ft | 447 kts | 244° |
| 2026-04-27 00:26 | 31.41322 | -83.50463 | 25873 ft | 446 kts | 244° |
| 2026-04-27 00:26 | 31.39830 | -83.53641 | 25629 ft | 445 kts | 244° |
| 2026-04-27 00:26 | 31.38339 | -83.56813 | 25390 ft | 445 kts | 244° |
| 2026-04-27 00:27 | 31.36847 | -83.59984 | 25155 ft | 445 kts | 244° |
| 2026-04-27 00:27 | 31.35352 | -83.63151 | 24901 ft | 444 kts | 244° |
| 2026-04-27 00:27 | 31.33861 | -83.66303 | 24670 ft | 442 kts | 244° |
| 2026-04-27 00:27 | 31.32375 | -83.69448 | 24436 ft | 441 kts | 244° |
| 2026-04-27 00:28 | 31.30895 | -83.72584 | 24205 ft | 440 kts | 244° |
| 2026-04-27 00:28 | 31.29417 | -83.75716 | 23980 ft | 439 kts | 244° |
| 2026-04-27 00:28 | 31.27943 | -83.78840 | 23752 ft | 438 kts | 244° |
| 2026-04-27 00:28 | 31.26469 | -83.81956 | 23525 ft | 438 kts | 244° |
| 2026-04-27 00:29 | 31.24997 | -83.85066 | 23264 ft | 437 kts | 244° |
| 2026-04-27 00:29 | 31.23530 | -83.88164 | 22999 ft | 435 kts | 244° |
| 2026-04-27 00:29 | 31.22066 | -83.91248 | 22727 ft | 433 kts | 244° |
| 2026-04-27 00:29 | 31.20602 | -83.94319 | 22470 ft | 432 kts | 244° |
| 2026-04-27 00:30 | 31.19143 | -83.97381 | 22209 ft | 431 kts | 244° |
| 2026-04-27 00:30 | 31.17690 | -84.00432 | 21950 ft | 429 kts | 244° |
| 2026-04-27 00:30 | 31.16243 | -84.03473 | 21690 ft | 427 kts | 244° |
| 2026-04-27 00:30 | 31.14802 | -84.06501 | 21439 ft | 426 kts | 244° |
| 2026-04-27 00:31 | 31.13367 | -84.09515 | 21188 ft | 424 kts | 244° |
| 2026-04-27 00:31 | 31.11933 | -84.12520 | 20943 ft | 423 kts | 244° |
| 2026-04-27 00:31 | 31.10502 | -84.15510 | 20685 ft | 421 kts | 244° |
| 2026-04-27 00:31 | 31.09076 | -84.18487 | 20442 ft | 420 kts | 244° |
| 2026-04-27 00:32 | 31.07654 | -84.21452 | 20199 ft | 418 kts | 244° |
| 2026-04-27 00:32 | 31.06237 | -84.24408 | 19963 ft | 417 kts | 244° |
| 2026-04-27 00:32 | 31.04822 | -84.27355 | 19725 ft | 416 kts | 244° |
| 2026-04-27 00:32 | 31.03413 | -84.30290 | 19483 ft | 414 kts | 244° |
| 2026-04-27 00:33 | 31.02010 | -84.33212 | 19247 ft | 412 kts | 244° |
| 2026-04-27 00:33 | 31.00614 | -84.36124 | 19016 ft | 411 kts | 243° |
| 2026-04-27 00:33 | 30.99223 | -84.39024 | 18789 ft | 410 kts | 243° |
| 2026-04-27 00:33 | 30.97833 | -84.41918 | 18562 ft | 409 kts | 243° |
| 2026-04-27 00:34 | 30.96445 | -84.44807 | 18339 ft | 408 kts | 243° |
| 2026-04-27 00:34 | 30.95060 | -84.47685 | 18092 ft | 407 kts | 243° |
| 2026-04-27 00:34 | 30.93678 | -84.50554 | 17827 ft | 405 kts | 243° |
| 2026-04-27 00:34 | 30.92300 | -84.53411 | 17557 ft | 404 kts | 243° |
| 2026-04-27 00:35 | 30.90922 | -84.56259 | 17300 ft | 403 kts | 243° |
| 2026-04-27 00:35 | 30.89551 | -84.59096 | 17045 ft | 401 kts | 243° |
| 2026-04-27 00:35 | 30.88182 | -84.61923 | 16792 ft | 400 kts | 243° |
| 2026-04-27 00:35 | 30.86818 | -84.64739 | 16537 ft | 399 kts | 243° |
| 2026-04-27 00:36 | 30.85457 | -84.67547 | 16290 ft | 398 kts | 243° |
| 2026-04-27 00:36 | 30.84120 | -84.70304 | 16036 ft | 396 kts | 243° |
| 2026-04-27 00:36 | 30.82771 | -84.73087 | 15792 ft | 395 kts | 243° |
| 2026-04-27 00:36 | 30.81427 | -84.75862 | 15550 ft | 393 kts | 243° |
| 2026-04-27 00:37 | 30.80085 | -84.78629 | 15314 ft | 392 kts | 243° |
| 2026-04-27 00:37 | 30.78747 | -84.81380 | 15074 ft | 390 kts | 243° |
| 2026-04-27 00:37 | 30.77525 | -84.84181 | 14830 ft | 386 kts | 252° |
| 2026-04-27 00:37 | 30.76989 | -84.87205 | 14604 ft | 381 kts | 264° |
| 2026-04-27 00:38 | 30.76668 | -84.90260 | 14367 ft | 380 kts | 265° |
| 2026-04-27 00:38 | 30.76356 | -84.93303 | 14072 ft | 377 kts | 265° |
| 2026-04-27 00:38 | 30.76049 | -84.96310 | 13483 ft | 373 kts | 265° |
| 2026-04-27 00:38 | 30.75744 | -84.99294 | 12825 ft | 370 kts | 265° |
| 2026-04-27 00:39 | 30.75440 | -85.02253 | 12155 ft | 368 kts | 265° |
| 2026-04-27 00:39 | 30.75136 | -85.05196 | 11484 ft | 366 kts | 265° |
| 2026-04-27 00:39 | 30.74835 | -85.08130 | 11108 ft | 365 kts | 265° |
| 2026-04-27 00:39 | 30.74538 | -85.11067 | 10984 ft | 366 kts | 265° |
| 2026-04-27 00:40 | 30.74243 | -85.14001 | 10870 ft | 366 kts | 265° |
| 2026-04-27 00:40 | 30.73950 | -85.16940 | 10518 ft | 365 kts | 265° |
| 2026-04-27 00:40 | 30.73668 | -85.19819 | 10264 ft | 351 kts | 265° |
| 2026-04-27 00:40 | 30.73398 | -85.22567 | 10144 ft | 334 kts | 265° |
| 2026-04-27 00:41 | 30.73142 | -85.25183 | 10023 ft | 318 kts | 265° |
| 2026-04-27 00:41 | 30.72896 | -85.27684 | 9904 ft | 305 kts | 265° |
| 2026-04-27 00:41 | 30.72657 | -85.30083 | 9769 ft | 293 kts | 265° |
| 2026-04-27 00:41 | 30.72425 | -85.32412 | 9459 ft | 288 kts | 265° |
| 2026-04-27 00:42 | 30.72196 | -85.34715 | 9082 ft | 286 kts | 265° |
| 2026-04-27 00:42 | 30.71968 | -85.37002 | 8783 ft | 285 kts | 265° |
| 2026-04-27 00:42 | 30.71738 | -85.39285 | 8475 ft | 284 kts | 265° |
| 2026-04-27 00:42 | 30.71508 | -85.41559 | 8175 ft | 283 kts | 265° |
| 2026-04-27 00:43 | 30.71278 | -85.43822 | 7844 ft | 281 kts | 265° |
| 2026-04-27 00:43 | 30.71055 | -85.46066 | 7530 ft | 279 kts | 265° |
| 2026-04-27 00:43 | 30.70833 | -85.48299 | 7220 ft | 277 kts | 265° |
| 2026-04-27 00:43 | 30.70609 | -85.50519 | 6912 ft | 276 kts | 265° |
| 2026-04-27 00:44 | 30.70386 | -85.52732 | 6606 ft | 275 kts | 265° |
| 2026-04-27 00:44 | 30.70162 | -85.54931 | 6299 ft | 274 kts | 265° |
| 2026-04-27 00:44 | 30.69947 | -85.57078 | 5977 ft | 268 kts | 265° |
| 2026-04-27 00:44 | 30.69734 | -85.59209 | 5663 ft | 263 kts | 265° |
| 2026-04-27 00:45 | 30.69528 | -85.61284 | 5410 ft | 254 kts | 265° |
| 2026-04-27 00:45 | 30.69325 | -85.63297 | 5165 ft | 247 kts | 265° |
| 2026-04-27 00:45 | 30.69116 | -85.65254 | 4913 ft | 241 kts | 265° |
| 2026-04-27 00:45 | 30.68922 | -85.67176 | 4676 ft | 239 kts | 265° |
| 2026-04-27 00:46 | 30.68739 | -85.69087 | 4426 ft | 237 kts | 265° |
| 2026-04-27 00:46 | 30.68565 | -85.70987 | 4192 ft | 236 kts | 265° |
| 2026-04-27 00:46 | 30.68401 | -85.72880 | 3995 ft | 235 kts | 265° |
| 2026-04-27 00:46 | 30.68229 | -85.74767 | 3859 ft | 234 kts | 265° |
| 2026-04-27 00:47 | 30.68053 | -85.76645 | 3724 ft | 234 kts | 265° |
| 2026-04-27 00:47 | 30.67881 | -85.78516 | 3609 ft | 232 kts | 265° |
| 2026-04-27 00:47 | 30.67707 | -85.80356 | 3486 ft | 224 kts | 266° |
| 2026-04-27 00:47 | 30.67509 | -85.82107 | 3359 ft | 214 kts | 257° |
| 2026-04-27 00:48 | 30.66814 | -85.83586 | 3254 ft | 208 kts | 228° |
| 2026-04-27 00:48 | 30.65607 | -85.84474 | 3140 ft | 207 kts | 200° |
| 2026-04-27 00:48 | 30.64238 | -85.84986 | 3044 ft | 207 kts | 200° |
| 2026-04-27 00:48 | 30.62874 | -85.85501 | 3007 ft | 207 kts | 200° |
| 2026-04-27 00:49 | 30.61502 | -85.86020 | 3007 ft | 207 kts | 200° |
| 2026-04-27 00:49 | 30.60133 | -85.86536 | 3007 ft | 207 kts | 200° |
| 2026-04-27 00:49 | 30.58763 | -85.87053 | 3013 ft | 207 kts | 200° |
| 2026-04-27 00:49 | 30.57417 | -85.87559 | 3002 ft | 201 kts | 200° |
| 2026-04-27 00:50 | 30.56071 | -85.87920 | 3006 ft | 199 kts | 185° |
| 2026-04-27 00:50 | 30.53379 | -85.87207 | 3015 ft | 201 kts | 160° |
| 2026-04-27 00:50 | 30.52076 | -85.86637 | 3020 ft | 200 kts | 161° |
| 2026-04-27 00:51 | 30.50789 | -85.86075 | 2839 ft | 196 kts | 160° |
| 2026-04-27 00:51 | 30.49528 | -85.85525 | 2587 ft | 192 kts | 161° |
| 2026-04-27 00:51 | 30.48288 | -85.84985 | 2336 ft | 189 kts | 162° |
| 2026-04-27 00:51 | 30.47063 | -85.84451 | 2089 ft | 188 kts | 161° |
| 2026-04-27 00:52 | 30.45846 | -85.83921 | 1853 ft | 186 kts | 162° |
| 2026-04-27 00:52 | 30.44667 | -85.83407 | 1615 ft | 175 kts | 162° |
| 2026-04-27 00:52 | 30.43569 | -85.82928 | 1411 ft | 161 kts | 162° |
| 2026-04-27 00:52 | 30.42559 | -85.82488 | 1191 ft | 150 kts | 164° |
| 2026-04-27 00:53 | 30.41608 | -85.82075 | 1003 ft | 146 kts | 162° |
| 2026-04-27 00:53 | 30.40668 | -85.81666 | 817 ft | 142 kts | 164° |
| 2026-04-27 00:53 | 30.39754 | -85.81270 | 669 ft | 139 kts | 163° |
| 2026-04-27 00:53 | 30.38858 | -85.80868 | 463 ft | 137 kts | 162° |
| 2026-04-27 00:54 | 30.37967 | -85.80475 | 279 ft | 134 kts | 164° |
| 2026-04-27 00:54 | 30.37097 | -85.80114 | 134 ft | 135 kts | 162° |
| 2026-04-27 00:54 | 30.36274 | -85.79758 | 71 ft | 101 kts | 160° |
| 2026-04-27 00:54 | 30.35760 | -85.79535 | 76 ft | 59 kts | 159° |
| 2026-04-27 00:55 | 30.35458 | -85.79401 | 74 ft | 43 kts | 159° |
| 2026-04-27 00:55 | 30.35214 | -85.79299 | 68 ft | 27 kts | 159° |
| 2026-04-27 00:55 | 30.35121 | -85.79257 | 72 ft | 7 kts | 161° |
| 2026-04-27 00:55 | 30.35087 | -85.79277 | 70 ft | 5 kts | 233° |
| 2026-04-27 00:56 | 30.35071 | -85.79317 | 72 ft | 6 kts | 249° |
| 2026-04-27 00:56 | 30.35055 | -85.79365 | 72 ft | 7 kts | 249° |
| 2026-04-27 00:56 | 30.35054 | -85.79422 | 65 ft | 8 kts | 304° |
| 2026-04-27 00:56 | 30.35096 | -85.79449 | 66 ft | 6 kts | 341° |
| 2026-04-27 00:57 | 30.35133 | -85.79464 | 68 ft | 5 kts | 340° |
| 2026-04-27 00:57 | 30.35187 | -85.79488 | 71 ft | 13 kts | 339° |
| 2026-04-27 00:57 | 30.35266 | -85.79519 | 73 ft | 11 kts | 341° |
| 2026-04-27 00:57 | 30.35338 | -85.79552 | 73 ft | 14 kts | 338° |
| 2026-04-27 00:58 | 30.35436 | -85.79594 | 70 ft | 15 kts | 340° |
| 2026-04-27 00:58 | 30.35532 | -85.79637 | 73 ft | 14 kts | 338° |
| 2026-04-27 00:58 | 30.35621 | -85.79675 | 70 ft | 13 kts | 340° |
| 2026-04-27 00:58 | 30.35673 | -85.79721 | 75 ft | 9 kts | 285° |
| 2026-04-27 00:59 | 30.35660 | -85.79793 | 72 ft | 8 kts | 239° |
| 2026-04-27 00:59 | 30.35603 | -85.79801 | 75 ft | 7 kts | 159° |
| 2026-04-27 00:59 | 30.35575 | -85.79788 | 76 ft | 4 kts | 158° |
| 2026-04-27 00:59 | 30.35549 | -85.79776 | 68 ft | 4 kts | 157° |
| 2026-04-27 01:00 | 30.35525 | -85.79764 | 71 ft | 3 kts | 157° |
| 2026-04-27 01:00 | 30.35505 | -85.79765 | 70 ft | 3 kts | 193° |
| 2026-04-27 01:00 | 30.35495 | -85.79777 | 75 ft | 2 kts | 238° |
| 2026-04-27 01:00 | 30.35496 | -85.79795 | 72 ft | 3 kts | 286° |
| 2026-04-27 01:01 | 30.35504 | -85.79814 | 67 ft | 2 kts | 293° |
| 2026-04-27 01:01 | 30.35505 | -85.79821 | 68 ft | 1 kts | 281° |
| 2026-04-27 01:01 | 30.35506 | -85.79823 | 68 ft | 0 kts | 281° |